sensor_id;sensor_type;location;lat;lon;timestamp;P1;durP1;ratioP1;P2;durP2;ratioP2
22995;SDS011;11664;49.774;8.650;2023-05-28T00:01:18;4.10;;;3.80;;
22995;SDS011;11664;49.774;8.650;2023-05-28T00:03:44;5.78;;;4.95;;
22995;SDS011;11664;49.774;8.650;2023-05-28T00:06:10;6.05;;;4.00;;
22995;SDS011;11664;49.774;8.650;2023-05-28T00:08:37;5.50;;;4.93;;
22995;SDS011;11664;49.774;8.650;2023-05-28T00:11:02;5.90;;;4.50;;
22995;SDS011;11664;49.774;8.650;2023-05-28T00:13:30;5.22;;;4.18;;
22995;SDS011;11664;49.774;8.650;2023-05-28T00:15:56;6.22;;;5.07;;
22995;SDS011;11664;49.774;8.650;2023-05-28T00:18:22;5.38;;;5.03;;
22995;SDS011;11664;49.774;8.650;2023-05-28T00:20:48;5.55;;;4.80;;
22995;SDS011;11664;49.774;8.650;2023-05-28T00:23:14;4.40;;;4.00;;
22995;SDS011;11664;49.774;8.650;2023-05-28T00:25:41;5.15;;;4.65;;
22995;SDS011;11664;49.774;8.650;2023-05-28T00:28:07;4.25;;;3.95;;
22995;SDS011;11664;49.774;8.650;2023-05-28T00:30:32;4.00;;;3.70;;
22995;SDS011;11664;49.774;8.650;2023-05-28T00:32:57;5.40;;;4.35;;
22995;SDS011;11664;49.774;8.650;2023-05-28T00:35:23;4.43;;;3.95;;
22995;SDS011;11664;49.774;8.650;2023-05-28T00:37:50;6.20;;;4.47;;
22995;SDS011;11664;49.774;8.650;2023-05-28T00:40:17;5.22;;;4.70;;
22995;SDS011;11664;49.774;8.650;2023-05-28T00:42:43;5.32;;;4.82;;
22995;SDS011;11664;49.774;8.650;2023-05-28T00:45:09;6.32;;;5.70;;
22995;SDS011;11664;49.774;8.650;2023-05-28T00:47:36;10.15;;;5.30;;
22995;SDS011;11664;49.774;8.650;2023-05-28T00:50:03;8.18;;;4.53;;
22995;SDS011;11664;49.774;8.650;2023-05-28T00:52:31;7.28;;;3.92;;
22995;SDS011;11664;49.774;8.650;2023-05-28T00:54:57;6.45;;;4.05;;
22995;SDS011;11664;49.774;8.650;2023-05-28T00:57:23;3.92;;;3.55;;
22995;SDS011;11664;49.774;8.650;2023-05-28T00:59:50;12.70;;;3.78;;
22995;SDS011;11664;49.774;8.650;2023-05-28T01:02:17;7.28;;;4.13;;
22995;SDS011;11664;49.774;8.650;2023-05-28T01:04:42;8.88;;;5.00;;
22995;SDS011;11664;49.774;8.650;2023-05-28T01:07:08;4.72;;;4.22;;
22995;SDS011;11664;49.774;8.650;2023-05-28T01:09:33;6.70;;;5.30;;
22995;SDS011;11664;49.774;8.650;2023-05-28T01:11:59;13.93;;;6.25;;
22995;SDS011;11664;49.774;8.650;2023-05-28T01:14:25;10.13;;;6.00;;
22995;SDS011;11664;49.774;8.650;2023-05-28T01:16:51;6.30;;;5.47;;
22995;SDS011;11664;49.774;8.650;2023-05-28T01:19:18;5.53;;;5.13;;
22995;SDS011;11664;49.774;8.650;2023-05-28T01:21:46;5.35;;;4.95;;
22995;SDS011;11664;49.774;8.650;2023-05-28T01:24:17;6.25;;;5.72;;
22995;SDS011;11664;49.774;8.650;2023-05-28T01:26:42;5.95;;;5.40;;
22995;SDS011;11664;49.774;8.650;2023-05-28T01:29:15;5.70;;;5.30;;
22995;SDS011;11664;49.774;8.650;2023-05-28T01:31:41;5.97;;;5.57;;
22995;SDS011;11664;49.774;8.650;2023-05-28T01:34:07;6.97;;;6.47;;
22995;SDS011;11664;49.774;8.650;2023-05-28T01:36:34;7.00;;;6.40;;
22995;SDS011;11664;49.774;8.650;2023-05-28T01:39:02;9.63;;;7.60;;
22995;SDS011;11664;49.774;8.650;2023-05-28T01:41:28;8.60;;;7.05;;
22995;SDS011;11664;49.774;8.650;2023-05-28T01:43:54;8.52;;;7.93;;
22995;SDS011;11664;49.774;8.650;2023-05-28T01:46:21;12.05;;;7.82;;
22995;SDS011;11664;49.774;8.650;2023-05-28T01:48:47;7.97;;;7.30;;
22995;SDS011;11664;49.774;8.650;2023-05-28T01:51:31;9.30;;;8.60;;
22995;SDS011;11664;49.774;8.650;2023-05-28T01:53:57;8.02;;;7.38;;
22995;SDS011;11664;49.774;8.650;2023-05-28T01:56:23;10.40;;;9.10;;
22995;SDS011;11664;49.774;8.650;2023-05-28T01:58:48;8.35;;;7.65;;
22995;SDS011;11664;49.774;8.650;2023-05-28T02:03:48;6.85;;;6.35;;
22995;SDS011;11664;49.774;8.650;2023-05-28T02:06:14;7.53;;;6.93;;
22995;SDS011;11664;49.774;8.650;2023-05-28T02:08:39;10.07;;;7.10;;
22995;SDS011;11664;49.774;8.650;2023-05-28T02:11:05;6.07;;;5.55;;
22995;SDS011;11664;49.774;8.650;2023-05-28T02:13:30;7.07;;;6.57;;
22995;SDS011;11664;49.774;8.650;2023-05-28T02:15:56;8.75;;;7.93;;
22995;SDS011;11664;49.774;8.650;2023-05-28T02:18:22;6.75;;;6.35;;
22995;SDS011;11664;49.774;8.650;2023-05-28T02:20:47;5.78;;;4.88;;
22995;SDS011;11664;49.774;8.650;2023-05-28T02:23:13;12.32;;;4.63;;
22995;SDS011;11664;49.774;8.650;2023-05-28T02:25:38;5.47;;;4.70;;
22995;SDS011;11664;49.774;8.650;2023-05-28T02:28:04;5.00;;;4.50;;
22995;SDS011;11664;49.774;8.650;2023-05-28T02:30:29;11.07;;;4.38;;
22995;SDS011;11664;49.774;8.650;2023-05-28T02:32:55;6.22;;;3.92;;
22995;SDS011;11664;49.774;8.650;2023-05-28T02:35:21;5.82;;;3.88;;
22995;SDS011;11664;49.774;8.650;2023-05-28T02:37:47;4.80;;;3.78;;
22995;SDS011;11664;49.774;8.650;2023-05-28T02:40:13;5.60;;;4.20;;
22995;SDS011;11664;49.774;8.650;2023-05-28T02:42:39;4.03;;;3.70;;
22995;SDS011;11664;49.774;8.650;2023-05-28T02:45:05;5.45;;;4.03;;
22995;SDS011;11664;49.774;8.650;2023-05-28T02:47:31;6.15;;;3.75;;
22995;SDS011;11664;49.774;8.650;2023-05-28T02:49:56;6.32;;;3.65;;
22995;SDS011;11664;49.774;8.650;2023-05-28T02:52:22;8.75;;;3.78;;
22995;SDS011;11664;49.774;8.650;2023-05-28T02:54:47;7.38;;;5.55;;
22995;SDS011;11664;49.774;8.650;2023-05-28T02:57:13;4.88;;;4.47;;
22995;SDS011;11664;49.774;8.650;2023-05-28T02:59:39;6.78;;;4.85;;
22995;SDS011;11664;49.774;8.650;2023-05-28T03:02:05;8.00;;;6.80;;
22995;SDS011;11664;49.774;8.650;2023-05-28T03:04:30;8.82;;;8.15;;
22995;SDS011;11664;49.774;8.650;2023-05-28T03:06:56;12.60;;;7.35;;
22995;SDS011;11664;49.774;8.650;2023-05-28T03:09:21;6.97;;;6.32;;
22995;SDS011;11664;49.774;8.650;2023-05-28T03:11:47;7.78;;;7.13;;
22995;SDS011;11664;49.774;8.650;2023-05-28T03:14:12;10.15;;;9.40;;
22995;SDS011;11664;49.774;8.650;2023-05-28T03:16:38;9.95;;;9.10;;
22995;SDS011;11664;49.774;8.650;2023-05-28T03:19:03;8.13;;;7.32;;
22995;SDS011;11664;49.774;8.650;2023-05-28T03:21:29;10.18;;;9.10;;
22995;SDS011;11664;49.774;8.650;2023-05-28T03:23:55;9.82;;;9.07;;
22995;SDS011;11664;49.774;8.650;2023-05-28T03:26:20;10.05;;;9.13;;
22995;SDS011;11664;49.774;8.650;2023-05-28T03:28:46;10.65;;;8.80;;
22995;SDS011;11664;49.774;8.650;2023-05-28T03:31:12;7.97;;;7.18;;
22995;SDS011;11664;49.774;8.650;2023-05-28T03:33:38;8.57;;;7.88;;
22995;SDS011;11664;49.774;8.650;2023-05-28T03:36:04;9.07;;;8.43;;
22995;SDS011;11664;49.774;8.650;2023-05-28T03:38:31;8.40;;;7.70;;
22995;SDS011;11664;49.774;8.650;2023-05-28T03:40:57;10.10;;;9.48;;
22995;SDS011;11664;49.774;8.650;2023-05-28T03:43:23;11.25;;;10.40;;
22995;SDS011;11664;49.774;8.650;2023-05-28T03:45:48;9.13;;;8.38;;
22995;SDS011;11664;49.774;8.650;2023-05-28T03:48:14;9.82;;;7.45;;
22995;SDS011;11664;49.774;8.650;2023-05-28T03:50:40;9.55;;;8.90;;
22995;SDS011;11664;49.774;8.650;2023-05-28T03:53:05;7.70;;;7.10;;
22995;SDS011;11664;49.774;8.650;2023-05-28T03:55:32;9.77;;;7.97;;
22995;SDS011;11664;49.774;8.650;2023-05-28T03:57:58;8.50;;;7.85;;
22995;SDS011;11664;49.774;8.650;2023-05-28T04:00:23;8.85;;;6.97;;
22995;SDS011;11664;49.774;8.650;2023-05-28T04:02:49;7.50;;;6.90;;
22995;SDS011;11664;49.774;8.650;2023-05-28T04:05:15;6.68;;;6.18;;
22995;SDS011;11664;49.774;8.650;2023-05-28T04:07:40;7.78;;;7.07;;
22995;SDS011;11664;49.774;8.650;2023-05-28T04:10:06;10.77;;;10.10;;
22995;SDS011;11664;49.774;8.650;2023-05-28T04:12:32;10.75;;;9.80;;
22995;SDS011;11664;49.774;8.650;2023-05-28T04:14:58;7.45;;;6.95;;
22995;SDS011;11664;49.774;8.650;2023-05-28T04:17:25;8.35;;;7.75;;
22995;SDS011;11664;49.774;8.650;2023-05-28T04:19:52;7.55;;;6.97;;
22995;SDS011;11664;49.774;8.650;2023-05-28T04:22:18;5.65;;;5.20;;
22995;SDS011;11664;49.774;8.650;2023-05-28T04:24:43;5.85;;;5.22;;
22995;SDS011;11664;49.774;8.650;2023-05-28T04:27:10;6.45;;;5.95;;
22995;SDS011;11664;49.774;8.650;2023-05-28T04:29:36;6.22;;;5.53;;
22995;SDS011;11664;49.774;8.650;2023-05-28T04:32:02;6.18;;;5.65;;
22995;SDS011;11664;49.774;8.650;2023-05-28T04:34:29;8.77;;;6.65;;
22995;SDS011;11664;49.774;8.650;2023-05-28T04:36:57;5.78;;;5.30;;
22995;SDS011;11664;49.774;8.650;2023-05-28T04:39:23;7.10;;;6.50;;
22995;SDS011;11664;49.774;8.650;2023-05-28T04:41:49;6.90;;;5.97;;
22995;SDS011;11664;49.774;8.650;2023-05-28T04:44:15;5.00;;;4.70;;
22995;SDS011;11664;49.774;8.650;2023-05-28T04:46:41;5.07;;;4.63;;
22995;SDS011;11664;49.774;8.650;2023-05-28T04:49:08;4.80;;;4.28;;
22995;SDS011;11664;49.774;8.650;2023-05-28T04:51:35;7.05;;;5.40;;
22995;SDS011;11664;49.774;8.650;2023-05-28T04:54:02;4.47;;;3.97;;
22995;SDS011;11664;49.774;8.650;2023-05-28T04:56:27;5.65;;;5.15;;
22995;SDS011;11664;49.774;8.650;2023-05-28T04:58:53;6.30;;;5.25;;
22995;SDS011;11664;49.774;8.650;2023-05-28T05:01:19;7.60;;;5.82;;
22995;SDS011;11664;49.774;8.650;2023-05-28T05:03:45;6.13;;;5.13;;
22995;SDS011;11664;49.774;8.650;2023-05-28T05:06:10;6.38;;;5.78;;
22995;SDS011;11664;49.774;8.650;2023-05-28T05:08:36;7.57;;;6.30;;
22995;SDS011;11664;49.774;8.650;2023-05-28T05:11:01;6.90;;;5.38;;
22995;SDS011;11664;49.774;8.650;2023-05-28T05:13:29;6.47;;;5.97;;
22995;SDS011;11664;49.774;8.650;2023-05-28T05:15:54;7.32;;;6.57;;
22995;SDS011;11664;49.774;8.650;2023-05-28T05:18:20;7.30;;;6.80;;
22995;SDS011;11664;49.774;8.650;2023-05-28T05:20:46;6.30;;;5.78;;
22995;SDS011;11664;49.774;8.650;2023-05-28T05:23:11;7.75;;;7.05;;
22995;SDS011;11664;49.774;8.650;2023-05-28T05:25:37;7.13;;;6.63;;
22995;SDS011;11664;49.774;8.650;2023-05-28T05:28:03;6.30;;;5.78;;
22995;SDS011;11664;49.774;8.650;2023-05-28T05:30:28;6.93;;;6.32;;
22995;SDS011;11664;49.774;8.650;2023-05-28T05:32:54;6.45;;;5.78;;
22995;SDS011;11664;49.774;8.650;2023-05-28T05:35:20;6.90;;;6.32;;
22995;SDS011;11664;49.774;8.650;2023-05-28T05:37:46;7.45;;;6.70;;
22995;SDS011;11664;49.774;8.650;2023-05-28T05:40:12;7.28;;;6.68;;
22995;SDS011;11664;49.774;8.650;2023-05-28T05:42:37;7.20;;;6.63;;
22995;SDS011;11664;49.774;8.650;2023-05-28T05:45:03;5.90;;;5.35;;
22995;SDS011;11664;49.774;8.650;2023-05-28T05:47:30;7.05;;;6.35;;
22995;SDS011;11664;49.774;8.650;2023-05-28T05:49:56;7.70;;;7.00;;
22995;SDS011;11664;49.774;8.650;2023-05-28T05:52:22;6.90;;;6.28;;
22995;SDS011;11664;49.774;8.650;2023-05-28T05:54:48;6.20;;;5.60;;
22995;SDS011;11664;49.774;8.650;2023-05-28T05:57:14;10.07;;;9.35;;
22995;SDS011;11664;49.774;8.650;2023-05-28T05:59:39;5.18;;;4.78;;
22995;SDS011;11664;49.774;8.650;2023-05-28T06:02:05;9.73;;;8.40;;
22995;SDS011;11664;49.774;8.650;2023-05-28T06:04:31;6.57;;;4.82;;
22995;SDS011;11664;49.774;8.650;2023-05-28T06:06:58;8.77;;;8.18;;
22995;SDS011;11664;49.774;8.650;2023-05-28T06:09:30;7.00;;;6.30;;
22995;SDS011;11664;49.774;8.650;2023-05-28T06:11:56;4.18;;;3.85;;
22995;SDS011;11664;49.774;8.650;2023-05-28T06:14:23;11.68;;;10.93;;
22995;SDS011;11664;49.774;8.650;2023-05-28T06:16:48;11.27;;;10.27;;
22995;SDS011;11664;49.774;8.650;2023-05-28T06:19:15;5.75;;;5.13;;
22995;SDS011;11664;49.774;8.650;2023-05-28T06:21:40;8.68;;;7.93;;
22995;SDS011;11664;49.774;8.650;2023-05-28T06:24:06;8.63;;;5.80;;
22995;SDS011;11664;49.774;8.650;2023-05-28T06:26:31;6.68;;;5.78;;
22995;SDS011;11664;49.774;8.650;2023-05-28T06:28:57;7.25;;;6.57;;
22995;SDS011;11664;49.774;8.650;2023-05-28T06:31:23;11.77;;;10.57;;
22995;SDS011;11664;49.774;8.650;2023-05-28T06:33:48;11.27;;;10.40;;
22995;SDS011;11664;49.774;8.650;2023-05-28T06:36:13;5.57;;;5.18;;
22995;SDS011;11664;49.774;8.650;2023-05-28T06:38:40;6.88;;;6.38;;
22995;SDS011;11664;49.774;8.650;2023-05-28T06:41:06;10.63;;;9.80;;
22995;SDS011;11664;49.774;8.650;2023-05-28T06:43:32;10.40;;;9.35;;
22995;SDS011;11664;49.774;8.650;2023-05-28T06:45:57;14.40;;;13.45;;
22995;SDS011;11664;49.774;8.650;2023-05-28T06:48:23;10.32;;;8.85;;
22995;SDS011;11664;49.774;8.650;2023-05-28T06:50:49;7.90;;;7.30;;
22995;SDS011;11664;49.774;8.650;2023-05-28T06:53:15;6.07;;;5.55;;
22995;SDS011;11664;49.774;8.650;2023-05-28T06:55:40;7.03;;;5.97;;
22995;SDS011;11664;49.774;8.650;2023-05-28T06:58:06;7.50;;;5.97;;
22995;SDS011;11664;49.774;8.650;2023-05-28T07:00:32;7.28;;;5.13;;
22995;SDS011;11664;49.774;8.650;2023-05-28T07:02:57;5.47;;;3.97;;
22995;SDS011;11664;49.774;8.650;2023-05-28T07:05:23;7.10;;;3.88;;
22995;SDS011;11664;49.774;8.650;2023-05-28T07:07:49;4.55;;;4.03;;
22995;SDS011;11664;49.774;8.650;2023-05-28T07:10:14;4.93;;;4.53;;
22995;SDS011;11664;49.774;8.650;2023-05-28T07:12:40;4.22;;;3.85;;
22995;SDS011;11664;49.774;8.650;2023-05-28T07:15:05;5.00;;;4.55;;
22995;SDS011;11664;49.774;8.650;2023-05-28T07:17:32;5.80;;;5.40;;
22995;SDS011;11664;49.774;8.650;2023-05-28T07:19:57;6.45;;;5.90;;
22995;SDS011;11664;49.774;8.650;2023-05-28T07:22:23;5.25;;;4.85;;
22995;SDS011;11664;49.774;8.650;2023-05-28T07:24:50;5.10;;;4.75;;
22995;SDS011;11664;49.774;8.650;2023-05-28T07:27:15;6.28;;;5.30;;
22995;SDS011;11664;49.774;8.650;2023-05-28T07:29:41;5.20;;;4.70;;
22995;SDS011;11664;49.774;8.650;2023-05-28T07:32:07;4.90;;;4.40;;
22995;SDS011;11664;49.774;8.650;2023-05-28T07:34:32;4.25;;;3.95;;
22995;SDS011;11664;49.774;8.650;2023-05-28T07:36:58;4.65;;;4.25;;
22995;SDS011;11664;49.774;8.650;2023-05-28T07:39:23;5.30;;;4.72;;
22995;SDS011;11664;49.774;8.650;2023-05-28T07:41:49;5.10;;;4.60;;
22995;SDS011;11664;49.774;8.650;2023-05-28T07:44:14;5.72;;;5.30;;
22995;SDS011;11664;49.774;8.650;2023-05-28T07:46:40;4.93;;;4.47;;
22995;SDS011;11664;49.774;8.650;2023-05-28T07:49:06;5.05;;;4.72;;
22995;SDS011;11664;49.774;8.650;2023-05-28T07:51:31;7.53;;;5.57;;
22995;SDS011;11664;49.774;8.650;2023-05-28T07:53:57;4.85;;;4.28;;
22995;SDS011;11664;49.774;8.650;2023-05-28T07:56:23;5.35;;;4.85;;
22995;SDS011;11664;49.774;8.650;2023-05-28T07:58:48;4.55;;;4.15;;
22995;SDS011;11664;49.774;8.650;2023-05-28T08:01:14;6.00;;;4.15;;
22995;SDS011;11664;49.774;8.650;2023-05-28T08:03:39;6.32;;;5.07;;
22995;SDS011;11664;49.774;8.650;2023-05-28T08:06:05;4.75;;;4.35;;
22995;SDS011;11664;49.774;8.650;2023-05-28T08:08:31;5.45;;;4.93;;
22995;SDS011;11664;49.774;8.650;2023-05-28T08:10:57;9.02;;;4.60;;
22995;SDS011;11664;49.774;8.650;2023-05-28T08:13:23;5.70;;;5.20;;
22995;SDS011;11664;49.774;8.650;2023-05-28T08:15:48;5.05;;;4.65;;
22995;SDS011;11664;49.774;8.650;2023-05-28T08:18:14;6.97;;;4.68;;
22995;SDS011;11664;49.774;8.650;2023-05-28T08:20:40;7.57;;;3.72;;
22995;SDS011;11664;49.774;8.650;2023-05-28T08:23:06;4.65;;;3.58;;
22995;SDS011;11664;49.774;8.650;2023-05-28T08:25:32;6.55;;;4.68;;
22995;SDS011;11664;49.774;8.650;2023-05-28T08:27:58;6.30;;;4.70;;
22995;SDS011;11664;49.774;8.650;2023-05-28T08:30:23;8.82;;;5.20;;
22995;SDS011;11664;49.774;8.650;2023-05-28T08:32:50;5.13;;;4.57;;
22995;SDS011;11664;49.774;8.650;2023-05-28T08:35:16;5.00;;;4.50;;
22995;SDS011;11664;49.774;8.650;2023-05-28T08:37:41;5.65;;;3.83;;
22995;SDS011;11664;49.774;8.650;2023-05-28T08:40:07;8.43;;;5.45;;
22995;SDS011;11664;49.774;8.650;2023-05-28T08:42:33;6.40;;;5.35;;
22995;SDS011;11664;49.774;8.650;2023-05-28T08:45:00;5.95;;;4.55;;
22995;SDS011;11664;49.774;8.650;2023-05-28T08:47:27;5.55;;;5.03;;
22995;SDS011;11664;49.774;8.650;2023-05-28T08:49:56;11.73;;;5.80;;
22995;SDS011;11664;49.774;8.650;2023-05-28T08:52:24;5.10;;;4.63;;
22995;SDS011;11664;49.774;8.650;2023-05-28T08:54:50;5.75;;;5.25;;
22995;SDS011;11664;49.774;8.650;2023-05-28T08:57:16;7.55;;;5.65;;
22995;SDS011;11664;49.774;8.650;2023-05-28T08:59:44;5.60;;;5.00;;
22995;SDS011;11664;49.774;8.650;2023-05-28T09:02:10;8.82;;;8.00;;
22995;SDS011;11664;49.774;8.650;2023-05-28T09:04:36;7.85;;;6.20;;
22995;SDS011;11664;49.774;8.650;2023-05-28T09:07:02;6.65;;;6.18;;
22995;SDS011;11664;49.774;8.650;2023-05-28T09:09:27;8.20;;;6.82;;
22995;SDS011;11664;49.774;8.650;2023-05-28T09:12:02;7.97;;;6.90;;
22995;SDS011;11664;49.774;8.650;2023-05-28T09:14:30;12.02;;;10.18;;
22995;SDS011;11664;49.774;8.650;2023-05-28T09:17:03;8.63;;;7.72;;
22995;SDS011;11664;49.774;8.650;2023-05-28T09:19:29;14.80;;;13.68;;
22995;SDS011;11664;49.774;8.650;2023-05-28T09:21:55;14.48;;;13.32;;
22995;SDS011;11664;49.774;8.650;2023-05-28T09:24:26;8.45;;;6.00;;
22995;SDS011;11664;49.774;8.650;2023-05-28T09:26:56;10.07;;;9.38;;
22995;SDS011;11664;49.774;8.650;2023-05-28T09:29:23;8.45;;;5.97;;
22995;SDS011;11664;49.774;8.650;2023-05-28T09:31:56;8.15;;;5.88;;
22995;SDS011;11664;49.774;8.650;2023-05-28T09:34:26;5.32;;;4.85;;
22995;SDS011;11664;49.774;8.650;2023-05-28T09:36:53;4.75;;;4.35;;
22995;SDS011;11664;49.774;8.650;2023-05-28T09:39:24;7.57;;;5.75;;
22995;SDS011;11664;49.774;8.650;2023-05-28T09:41:57;5.65;;;4.55;;
22995;SDS011;11664;49.774;8.650;2023-05-28T09:44:34;4.50;;;4.10;;
22995;SDS011;11664;49.774;8.650;2023-05-28T09:47:01;4.13;;;3.80;;
22995;SDS011;11664;49.774;8.650;2023-05-28T09:49:37;4.47;;;4.03;;
22995;SDS011;11664;49.774;8.650;2023-05-28T09:52:03;5.47;;;4.82;;
22995;SDS011;11664;49.774;8.650;2023-05-28T09:54:33;5.50;;;4.30;;
22995;SDS011;11664;49.774;8.650;2023-05-28T09:57:02;5.50;;;5.00;;
22995;SDS011;11664;49.774;8.650;2023-05-28T09:59:31;8.02;;;4.47;;
22995;SDS011;11664;49.774;8.650;2023-05-28T10:04:47;7.15;;;4.88;;
22995;SDS011;11664;49.774;8.650;2023-05-28T10:07:19;5.57;;;5.07;;
22995;SDS011;11664;49.774;8.650;2023-05-28T10:09:46;5.63;;;5.07;;
22995;SDS011;11664;49.774;8.650;2023-05-28T10:12:16;7.38;;;4.25;;
22995;SDS011;11664;49.774;8.650;2023-05-28T10:14:46;6.72;;;5.30;;
22995;SDS011;11664;49.774;8.650;2023-05-28T10:17:13;4.97;;;4.57;;
22995;SDS011;11664;49.774;8.650;2023-05-28T10:19:40;4.85;;;4.45;;
22995;SDS011;11664;49.774;8.650;2023-05-28T10:22:06;6.72;;;6.10;;
22995;SDS011;11664;49.774;8.650;2023-05-28T10:24:32;10.13;;;8.13;;
22995;SDS011;11664;49.774;8.650;2023-05-28T10:26:58;8.57;;;7.65;;
22995;SDS011;11664;49.774;8.650;2023-05-28T10:29:24;7.90;;;6.55;;
22995;SDS011;11664;49.774;8.650;2023-05-28T10:32:00;7.90;;;6.57;;
22995;SDS011;11664;49.774;8.650;2023-05-28T10:34:29;7.65;;;6.97;;
22995;SDS011;11664;49.774;8.650;2023-05-28T10:37:22;8.38;;;7.68;;
22995;SDS011;11664;49.774;8.650;2023-05-28T10:39:48;8.90;;;7.35;;
22995;SDS011;11664;49.774;8.650;2023-05-28T10:42:14;9.77;;;9.02;;
22995;SDS011;11664;49.774;8.650;2023-05-28T10:47:40;9.98;;;8.63;;
22995;SDS011;11664;49.774;8.650;2023-05-28T10:50:13;7.45;;;6.72;;
22995;SDS011;11664;49.774;8.650;2023-05-28T10:52:40;5.82;;;4.80;;
22995;SDS011;11664;49.774;8.650;2023-05-28T10:55:07;5.07;;;4.57;;
22995;SDS011;11664;49.774;8.650;2023-05-28T11:00:12;4.65;;;4.35;;
22995;SDS011;11664;49.774;8.650;2023-05-28T11:02:47;7.38;;;4.60;;
22995;SDS011;11664;49.774;8.650;2023-05-28T11:05:15;6.30;;;5.80;;
22995;SDS011;11664;49.774;8.650;2023-05-28T11:07:41;9.40;;;5.97;;
22995;SDS011;11664;49.774;8.650;2023-05-28T11:10:11;5.55;;;5.05;;
22995;SDS011;11664;49.774;8.650;2023-05-28T11:12:40;4.80;;;4.43;;
22995;SDS011;11664;49.774;8.650;2023-05-28T11:15:07;6.60;;;4.43;;
22995;SDS011;11664;49.774;8.650;2023-05-28T11:20:04;4.88;;;4.05;;
22995;SDS011;11664;49.774;8.650;2023-05-28T11:22:34;4.13;;;3.80;;
22995;SDS011;11664;49.774;8.650;2023-05-28T11:25:06;6.07;;;4.13;;
22995;SDS011;11664;49.774;8.650;2023-05-28T11:27:33;7.13;;;4.60;;
22995;SDS011;11664;49.774;8.650;2023-05-28T11:30:00;6.20;;;5.57;;
22995;SDS011;11664;49.774;8.650;2023-05-28T11:32:28;6.43;;;4.93;;
22995;SDS011;11664;49.774;8.650;2023-05-28T11:34:56;5.50;;;5.00;;
22995;SDS011;11664;49.774;8.650;2023-05-28T11:37:26;5.95;;;5.35;;
22995;SDS011;11664;49.774;8.650;2023-05-28T11:39:53;4.72;;;4.18;;
22995;SDS011;11664;49.774;8.650;2023-05-28T11:42:23;7.43;;;5.15;;
22995;SDS011;11664;49.774;8.650;2023-05-28T11:44:51;5.07;;;4.57;;
22995;SDS011;11664;49.774;8.650;2023-05-28T11:47:17;5.63;;;4.38;;
22995;SDS011;11664;49.774;8.650;2023-05-28T11:49:44;6.15;;;4.32;;
22995;SDS011;11664;49.774;8.650;2023-05-28T11:52:11;9.00;;;5.03;;
22995;SDS011;11664;49.774;8.650;2023-05-28T11:54:40;5.70;;;4.43;;
22995;SDS011;11664;49.774;8.650;2023-05-28T11:57:07;8.68;;;4.85;;
22995;SDS011;11664;49.774;8.650;2023-05-28T11:59:33;5.60;;;5.05;;
22995;SDS011;11664;49.774;8.650;2023-05-28T12:02:09;5.60;;;4.72;;
22995;SDS011;11664;49.774;8.650;2023-05-28T12:04:53;8.68;;;4.90;;
22995;SDS011;11664;49.774;8.650;2023-05-28T12:07:31;5.72;;;4.57;;
22995;SDS011;11664;49.774;8.650;2023-05-28T12:10:07;6.53;;;4.65;;
22995;SDS011;11664;49.774;8.650;2023-05-28T12:12:42;8.30;;;4.53;;
22995;SDS011;11664;49.774;8.650;2023-05-28T12:15:09;5.50;;;4.28;;
22995;SDS011;11664;49.774;8.650;2023-05-28T12:17:35;5.85;;;4.47;;
22995;SDS011;11664;49.774;8.650;2023-05-28T12:20:44;5.93;;;4.90;;
22995;SDS011;11664;49.774;8.650;2023-05-28T12:23:11;7.45;;;5.45;;
22995;SDS011;11664;49.774;8.650;2023-05-28T12:28:14;4.78;;;4.15;;
22995;SDS011;11664;49.774;8.650;2023-05-28T12:30:41;8.30;;;5.07;;
22995;SDS011;11664;49.774;8.650;2023-05-28T12:33:09;5.93;;;5.00;;
22995;SDS011;11664;49.774;8.650;2023-05-28T12:35:35;6.10;;;5.47;;
22995;SDS011;11664;49.774;8.650;2023-05-28T12:38:01;7.68;;;6.07;;
22995;SDS011;11664;49.774;8.650;2023-05-28T12:40:27;5.40;;;4.82;;
22995;SDS011;11664;49.774;8.650;2023-05-28T12:42:53;10.20;;;5.60;;
22995;SDS011;11664;49.774;8.650;2023-05-28T12:45:18;4.72;;;4.30;;
22995;SDS011;11664;49.774;8.650;2023-05-28T12:47:44;4.85;;;4.20;;
22995;SDS011;11664;49.774;8.650;2023-05-28T12:50:10;4.50;;;4.10;;
22995;SDS011;11664;49.774;8.650;2023-05-28T12:52:36;5.90;;;5.40;;
22995;SDS011;11664;49.774;8.650;2023-05-28T12:55:01;10.70;;;5.40;;
22995;SDS011;11664;49.774;8.650;2023-05-28T12:57:27;6.28;;;4.88;;
22995;SDS011;11664;49.774;8.650;2023-05-28T12:59:53;7.22;;;4.53;;
22995;SDS011;11664;49.774;8.650;2023-05-28T13:02:18;4.55;;;4.15;;
22995;SDS011;11664;49.774;8.650;2023-05-28T13:04:44;6.10;;;5.30;;
22995;SDS011;11664;49.774;8.650;2023-05-28T13:07:09;6.30;;;5.45;;
22995;SDS011;11664;49.774;8.650;2023-05-28T13:09:35;5.72;;;5.15;;
22995;SDS011;11664;49.774;8.650;2023-05-28T13:12:01;6.32;;;5.72;;
22995;SDS011;11664;49.774;8.650;2023-05-28T13:14:28;7.10;;;5.38;;
22995;SDS011;11664;49.774;8.650;2023-05-28T13:16:55;7.72;;;5.15;;
22995;SDS011;11664;49.774;8.650;2023-05-28T13:19:22;7.63;;;6.47;;
22995;SDS011;11664;49.774;8.650;2023-05-28T13:21:48;5.60;;;5.00;;
22995;SDS011;11664;49.774;8.650;2023-05-28T13:24:13;7.65;;;5.15;;
22995;SDS011;11664;49.774;8.650;2023-05-28T13:26:39;6.32;;;4.43;;
22995;SDS011;11664;49.774;8.650;2023-05-28T13:29:04;7.15;;;4.85;;
22995;SDS011;11664;49.774;8.650;2023-05-28T13:31:30;4.68;;;4.15;;
22995;SDS011;11664;49.774;8.650;2023-05-28T13:33:56;8.77;;;8.02;;
22995;SDS011;11664;49.774;8.650;2023-05-28T13:36:22;9.38;;;7.15;;
22995;SDS011;11664;49.774;8.650;2023-05-28T13:38:49;6.10;;;5.10;;
22995;SDS011;11664;49.774;8.650;2023-05-28T13:41:14;6.32;;;5.18;;
22995;SDS011;11664;49.774;8.650;2023-05-28T13:43:41;5.38;;;4.88;;
22995;SDS011;11664;49.774;8.650;2023-05-28T13:46:07;6.90;;;4.30;;
22995;SDS011;11664;49.774;8.650;2023-05-28T13:48:32;5.95;;;4.82;;
22995;SDS011;11664;49.774;8.650;2023-05-28T13:50:59;5.78;;;4.22;;
22995;SDS011;11664;49.774;8.650;2023-05-28T13:53:29;5.65;;;5.05;;
22995;SDS011;11664;49.774;8.650;2023-05-28T13:55:56;5.53;;;4.18;;
22995;SDS011;11664;49.774;8.650;2023-05-28T13:58:23;4.82;;;3.90;;
22995;SDS011;11664;49.774;8.650;2023-05-28T14:00:49;5.43;;;4.55;;
22995;SDS011;11664;49.774;8.650;2023-05-28T14:03:15;6.70;;;5.82;;
22995;SDS011;11664;49.774;8.650;2023-05-28T14:05:42;7.07;;;6.20;;
22995;SDS011;11664;49.774;8.650;2023-05-28T14:08:08;6.95;;;6.35;;
22995;SDS011;11664;49.774;8.650;2023-05-28T14:10:34;6.22;;;5.63;;
22995;SDS011;11664;49.774;8.650;2023-05-28T14:12:59;6.15;;;5.55;;
22995;SDS011;11664;49.774;8.650;2023-05-28T14:15:25;4.90;;;4.40;;
22995;SDS011;11664;49.774;8.650;2023-05-28T14:17:50;9.18;;;4.78;;
22995;SDS011;11664;49.774;8.650;2023-05-28T14:20:16;5.97;;;4.63;;
22995;SDS011;11664;49.774;8.650;2023-05-28T14:22:42;8.55;;;5.18;;
22995;SDS011;11664;49.774;8.650;2023-05-28T14:25:09;7.22;;;4.53;;
22995;SDS011;11664;49.774;8.650;2023-05-28T14:27:35;7.07;;;4.47;;
22995;SDS011;11664;49.774;8.650;2023-05-28T14:30:00;6.38;;;4.57;;
22995;SDS011;11664;49.774;8.650;2023-05-28T14:32:26;7.20;;;4.65;;
22995;SDS011;11664;49.774;8.650;2023-05-28T14:34:51;6.00;;;5.22;;
22995;SDS011;11664;49.774;8.650;2023-05-28T14:37:17;6.57;;;5.15;;
22995;SDS011;11664;49.774;8.650;2023-05-28T14:39:43;5.80;;;4.57;;
22995;SDS011;11664;49.774;8.650;2023-05-28T14:42:09;6.43;;;5.05;;
22995;SDS011;11664;49.774;8.650;2023-05-28T14:44:35;6.30;;;5.28;;
22995;SDS011;11664;49.774;8.650;2023-05-28T14:47:01;6.28;;;5.60;;
22995;SDS011;11664;49.774;8.650;2023-05-28T14:49:26;5.13;;;4.63;;
22995;SDS011;11664;49.774;8.650;2023-05-28T14:51:53;5.60;;;5.03;;
22995;SDS011;11664;49.774;8.650;2023-05-28T14:54:20;6.63;;;6.00;;
22995;SDS011;11664;49.774;8.650;2023-05-28T14:56:46;8.15;;;4.88;;
22995;SDS011;11664;49.774;8.650;2023-05-28T14:59:11;7.15;;;4.63;;